createdAt,value
2022-09-28T00:04:47.523Z,4.30
2022-09-28T00:14:47.375Z,4.20
2022-09-28T00:24:46.810Z,3.70
2022-09-28T00:34:46.299Z,3.90
2022-09-28T00:44:45.948Z,4.60
2022-09-28T00:54:45.588Z,5.10
2022-09-28T01:04:45.560Z,5.80
2022-09-28T01:14:45.044Z,5.60
2022-09-28T01:24:44.650Z,5.30
2022-09-28T01:34:44.312Z,5.10
2022-09-28T01:44:43.799Z,5.20
2022-09-28T01:54:43.460Z,5.10
2022-09-28T02:04:43.608Z,5.20
2022-09-28T02:14:42.819Z,5.30
2022-09-28T02:24:42.389Z,4.80
2022-09-28T02:34:37.320Z,5.20
2022-09-28T02:44:36.920Z,5.30
2022-09-28T02:54:36.214Z,5.30
2022-09-28T03:04:35.869Z,5.70
2022-09-28T03:14:35.500Z,6.10
2022-09-28T03:24:35.608Z,6.50
2022-09-28T03:34:34.742Z,6.80
2022-09-28T03:44:34.395Z,7.10
2022-09-28T03:54:33.977Z,7.20
2022-09-28T04:04:33.655Z,7.10
2022-09-28T04:14:33.395Z,7.00
2022-09-28T04:24:32.892Z,8.30
2022-09-28T04:34:35.866Z,8.10
2022-09-28T04:44:32.471Z,8.00
2022-09-28T04:54:31.774Z,7.80
2022-09-28T05:04:31.412Z,8.20
2022-09-28T05:14:31.045Z,7.30
2022-09-28T05:24:30.673Z,7.40
2022-09-28T05:34:30.297Z,7.50
2022-09-28T05:44:30.249Z,8.60
2022-09-28T05:54:31.173Z,8.00
2022-09-28T06:04:29.189Z,8.40
2022-09-28T06:14:30.602Z,8.20
2022-09-28T06:24:28.449Z,8.30
2022-09-28T06:34:28.398Z,9.00
2022-09-28T06:44:27.706Z,10.40
2022-09-28T06:54:22.281Z,9.40
2022-09-28T07:04:22.079Z,8.60
2022-09-28T07:14:39.496Z,8.20
2022-09-28T07:24:21.200Z,8.70
2022-09-28T07:34:20.787Z,7.90
2022-09-28T07:44:20.585Z,5.90
2022-09-28T07:54:20.216Z,6.70
2022-09-28T08:04:19.656Z,6.60
2022-09-28T08:14:19.269Z,6.20
2022-09-28T08:24:19.354Z,7.10
2022-09-28T08:34:18.630Z,18.20
2022-09-28T08:44:18.438Z,7.00
2022-09-28T08:54:18.016Z,7.50
2022-09-28T09:04:17.702Z,8.20
2022-09-28T09:14:17.104Z,7.00
2022-09-28T09:24:17.140Z,7.10
2022-09-28T09:34:16.656Z,7.70
2022-09-28T09:44:16.122Z,5.90
2022-09-28T09:54:15.585Z,7.20
2022-09-28T10:04:15.229Z,6.80
2022-09-28T10:14:15.028Z,8.20
2022-09-28T10:24:14.643Z,7.70
2022-09-28T10:34:14.571Z,7.70
2022-09-28T10:44:13.812Z,7.50
2022-09-28T10:54:13.701Z,6.10
2022-09-28T11:04:13.240Z,8.00
2022-09-28T11:14:12.805Z,7.80
2022-09-28T11:24:15.515Z,7.20
2022-09-28T11:34:12.197Z,6.00
2022-09-28T11:44:11.606Z,5.50
2022-09-28T11:54:11.270Z,4.20
2022-09-28T12:04:10.874Z,5.20
2022-09-28T12:14:10.443Z,4.80
2022-09-28T12:24:10.069Z,4.10
2022-09-28T12:34:09.686Z,4.20
2022-09-28T12:44:09.300Z,4.40
2022-09-28T12:54:09.209Z,4.30
2022-09-28T13:04:11.443Z,4.50
2022-09-28T13:14:08.202Z,4.70
2022-09-28T13:24:20.876Z,4.40
2022-09-28T13:34:07.489Z,4.70
2022-09-28T13:44:07.149Z,4.30
2022-09-28T13:54:06.771Z,3.90
2022-09-28T14:04:06.595Z,4.40
2022-09-28T14:14:06.063Z,7.70
2022-09-28T14:24:05.992Z,4.50
2022-09-28T14:34:05.454Z,3.70
2022-09-28T14:44:05.111Z,4.00
2022-09-28T14:54:04.563Z,3.70
2022-09-28T15:04:04.694Z,3.40
2022-09-28T15:14:04.130Z,3.70
2022-09-28T15:24:03.515Z,3.90
2022-09-28T15:34:03.268Z,4.00
2022-09-28T15:44:02.775Z,4.30
2022-09-28T15:54:02.576Z,3.80
2022-09-28T16:04:02.443Z,4.10
2022-09-28T16:14:02.405Z,3.40
2022-09-28T16:24:02.483Z,6.90
2022-09-28T16:34:02.205Z,3.60
2022-09-28T16:44:01.819Z,3.80
2022-09-28T16:54:01.838Z,3.80
2022-09-28T17:04:01.466Z,3.80
2022-09-28T17:14:01.314Z,3.20
2022-09-28T17:24:01.134Z,3.90
2022-09-28T17:34:01.035Z,4.20
2022-09-28T17:44:00.731Z,3.40
2022-09-28T17:54:05.287Z,3.60
2022-09-28T18:03:59.977Z,4.60
2022-09-28T18:13:59.714Z,4.00
2022-09-28T18:23:59.550Z,4.50
2022-09-28T18:33:59.088Z,4.00
2022-09-28T18:43:58.940Z,4.20
2022-09-28T18:53:58.553Z,4.60
2022-09-28T19:03:58.341Z,4.60
2022-09-28T19:13:58.193Z,4.80
2022-09-28T19:23:57.748Z,4.80
2022-09-28T19:33:57.378Z,11.10
2022-09-28T19:43:56.880Z,5.20
2022-09-28T19:53:56.660Z,5.50
2022-09-28T20:03:56.124Z,5.30
2022-09-28T20:13:55.911Z,5.00
2022-09-28T20:23:55.530Z,5.20
2022-09-28T20:33:55.004Z,4.90
2022-09-28T20:43:54.660Z,4.70
2022-09-28T20:53:54.321Z,4.50
2022-09-28T21:03:53.972Z,4.70
2022-09-28T21:13:53.746Z,4.70
2022-09-28T21:23:53.550Z,4.50
2022-09-28T21:33:52.861Z,4.50
2022-09-28T21:43:52.515Z,4.70
2022-09-28T21:53:52.131Z,4.80
2022-09-28T22:03:51.756Z,4.90
2022-09-28T22:13:51.568Z,4.80
2022-09-28T22:23:51.164Z,4.70
2022-09-28T22:33:50.865Z,5.20
2022-09-28T22:43:50.313Z,4.90
2022-09-28T22:53:49.953Z,5.50
2022-09-28T23:03:49.634Z,4.80
2022-09-28T23:13:49.400Z,4.70
2022-09-28T23:23:48.919Z,4.90
2022-09-28T23:33:48.531Z,5.20
2022-09-28T23:43:48.172Z,5.60
2022-09-28T23:53:47.966Z,5.80
